createdAt,value
2022-10-13T00:01:42.018Z,85.01
2022-10-13T00:04:08.418Z,84.98
2022-10-13T00:06:34.928Z,85.30
2022-10-13T00:09:01.402Z,85.06
2022-10-13T00:11:29.648Z,85.40
2022-10-13T00:13:59.211Z,85.37
2022-10-13T00:16:26.939Z,85.24
2022-10-13T00:18:53.729Z,85.59
2022-10-13T00:21:23.377Z,85.77
2022-10-13T00:23:50.945Z,85.47
2022-10-13T00:26:18.207Z,85.93
2022-10-13T00:28:49.754Z,85.80
2022-10-13T00:31:26.991Z,85.67
2022-10-13T00:33:53.873Z,85.63
2022-10-13T00:36:22.352Z,85.33
2022-10-13T00:38:49.310Z,85.41
2022-10-13T00:41:16.143Z,85.87
2022-10-13T00:44:01.335Z,85.72
2022-10-13T00:46:35.725Z,85.46
2022-10-13T00:49:06.574Z,85.23
2022-10-13T00:51:38.243Z,85.55
2022-10-13T00:54:06.939Z,85.55
2022-10-13T00:56:34.835Z,85.68
2022-10-13T00:59:02.545Z,85.83
2022-10-13T01:01:29.033Z,86.43
2022-10-13T01:03:55.442Z,86.38
2022-10-13T01:06:23.877Z,85.92
2022-10-13T01:08:50.686Z,85.48
2022-10-13T01:11:43.708Z,85.56
2022-10-13T01:14:36.519Z,85.14
2022-10-13T01:17:24.575Z,85.68
2022-10-13T01:20:45.057Z,85.55
2022-10-13T01:23:14.421Z,85.62
2022-10-13T01:25:54.316Z,85.63
2022-10-13T01:28:39.516Z,85.34
2022-10-13T01:31:20.374Z,85.21
2022-10-13T01:34:04.122Z,85.05
2022-10-13T01:36:44.877Z,84.99
2022-10-13T01:39:33.822Z,85.14
2022-10-13T01:42:27.665Z,85.13
2022-10-13T01:45:00.203Z,85.28
2022-10-13T01:47:28.857Z,84.94
2022-10-13T01:49:57.197Z,84.97
2022-10-13T01:52:27.754Z,85.14
2022-10-13T01:54:54.580Z,85.07
2022-10-13T01:57:47.261Z,85.13
2022-10-13T02:00:17.820Z,85.10
2022-10-13T02:03:09.313Z,85.14
2022-10-13T02:05:38.915Z,85.06
2022-10-13T02:08:14.542Z,85.02
2022-10-13T02:10:48.759Z,85.00
2022-10-13T02:13:19.619Z,85.09
2022-10-13T02:15:49.274Z,84.88
2022-10-13T02:18:20.264Z,85.15
2022-10-13T02:20:47.766Z,85.27
2022-10-13T02:23:16.845Z,85.23
2022-10-13T02:25:44.394Z,84.97
2022-10-13T02:28:12.725Z,85.12
2022-10-13T02:30:41.226Z,85.16
2022-10-13T02:33:08.912Z,85.28
2022-10-13T02:35:35.705Z,85.47
2022-10-13T02:38:02.316Z,85.48
2022-10-13T02:40:28.781Z,85.36
2022-10-13T02:42:55.249Z,85.18
2022-10-13T02:45:21.811Z,85.41
2022-10-13T02:47:48.433Z,85.59
2022-10-13T02:50:14.949Z,85.61
2022-10-13T02:52:41.421Z,85.47
2022-10-13T02:55:07.955Z,85.67
2022-10-13T02:57:34.744Z,85.66
2022-10-13T03:00:01.212Z,85.75
2022-10-13T03:02:28.601Z,85.66
2022-10-13T03:04:55.044Z,85.83
2022-10-13T03:07:21.636Z,85.87
2022-10-13T03:09:48.342Z,85.77
2022-10-13T03:12:14.855Z,85.96
2022-10-13T03:14:41.319Z,86.11
2022-10-13T03:17:11.128Z,86.51
2022-10-13T03:19:39.981Z,86.54
2022-10-13T03:22:06.470Z,86.63
2022-10-13T03:24:32.931Z,86.93
2022-10-13T03:26:59.395Z,86.94
2022-10-13T03:29:25.928Z,87.00
2022-10-13T03:31:52.445Z,87.02
2022-10-13T03:34:20.293Z,87.10
2022-10-13T03:36:47.223Z,87.02
2022-10-13T03:39:13.821Z,87.08
2022-10-13T03:41:40.279Z,86.88
2022-10-13T03:44:07.591Z,87.16
2022-10-13T03:46:34.228Z,87.08
2022-10-13T03:49:00.848Z,86.88
2022-10-13T03:51:27.278Z,87.25
2022-10-13T03:53:54.047Z,87.04
2022-10-13T03:56:25.072Z,87.11
2022-10-13T03:58:55.319Z,87.29
2022-10-13T04:01:23.273Z,87.36
2022-10-13T04:03:51.896Z,87.33
2022-10-13T04:06:18.366Z,87.58
2022-10-13T04:08:44.922Z,87.34
2022-10-13T04:11:14.082Z,87.45
2022-10-13T04:13:41.478Z,87.28
2022-10-13T04:16:19.486Z,87.41
2022-10-13T04:18:50.678Z,87.54
2022-10-13T04:21:17.146Z,87.81
2022-10-13T04:23:43.564Z,87.44
2022-10-13T04:26:17.019Z,87.63
2022-10-13T04:28:43.885Z,87.33
2022-10-13T04:31:10.402Z,87.50
2022-10-13T04:33:36.844Z,87.57
2022-10-13T04:36:05.421Z,87.67
2022-10-13T04:38:31.894Z,87.53
2022-10-13T04:40:58.354Z,87.80
2022-10-13T04:43:24.833Z,88.45
2022-10-13T04:45:51.301Z,88.11
2022-10-13T04:48:17.697Z,88.19
2022-10-13T04:50:44.167Z,88.21
2022-10-13T04:53:13.227Z,88.41
2022-10-13T04:55:43.172Z,88.58
2022-10-13T04:58:09.577Z,88.59
2022-10-13T05:00:36.065Z,88.44
2022-10-13T05:03:02.492Z,88.10
2022-10-13T05:05:28.907Z,88.37
2022-10-13T05:07:55.350Z,88.80
2022-10-13T05:10:21.808Z,89.01
2022-10-13T05:12:48.233Z,88.95
2022-10-13T05:15:14.753Z,89.25
2022-10-13T05:17:41.208Z,89.35
2022-10-13T05:20:08.386Z,89.66
2022-10-13T05:22:34.816Z,89.68
2022-10-13T05:25:01.255Z,89.82
2022-10-13T05:27:27.776Z,90.04
2022-10-13T05:29:54.177Z,89.88
2022-10-13T05:32:20.927Z,89.81
2022-10-13T05:34:49.117Z,89.98
2022-10-13T05:37:17.084Z,90.11
2022-10-13T05:39:43.725Z,89.98
2022-10-13T05:42:10.934Z,90.18
2022-10-13T05:44:37.480Z,90.33
2022-10-13T05:47:07.525Z,90.40
2022-10-13T05:49:36.402Z,90.76
2022-10-13T05:52:08.852Z,90.73
2022-10-13T05:54:37.710Z,90.99
2022-10-13T05:57:15.020Z,90.85
2022-10-13T05:59:53.427Z,91.03
2022-10-13T06:02:23.281Z,91.06
2022-10-13T06:04:53.937Z,91.28
2022-10-13T06:07:20.513Z,91.30
2022-10-13T06:09:47.190Z,91.37
2022-10-13T06:12:13.684Z,91.41
2022-10-13T06:14:40.113Z,91.22
2022-10-13T06:17:07.703Z,91.45
2022-10-13T06:19:34.177Z,91.63
2022-10-13T06:22:03.633Z,92.14
2022-10-13T06:24:30.645Z,92.48
2022-10-13T06:26:57.370Z,92.62
2022-10-13T06:29:24.094Z,92.97
2022-10-13T06:31:50.526Z,93.10
2022-10-13T06:34:17.002Z,93.24
2022-10-13T06:36:43.436Z,93.16
2022-10-13T06:39:10.334Z,93.19
2022-10-13T06:41:36.882Z,93.34
2022-10-13T06:44:03.491Z,93.53
2022-10-13T06:46:29.983Z,93.92
2022-10-13T06:48:56.614Z,94.20
2022-10-13T06:51:23.022Z,94.50
2022-10-13T06:53:49.524Z,94.56
2022-10-13T06:56:15.934Z,94.89
2022-10-13T06:58:42.471Z,94.69
2022-10-13T07:01:12.635Z,94.90
2022-10-13T07:03:39.205Z,95.11
2022-10-13T07:06:06.417Z,95.24
2022-10-13T07:08:34.022Z,95.36
2022-10-13T07:11:11.635Z,95.39
2022-10-13T07:13:46.149Z,95.68
2022-10-13T07:16:13.386Z,95.59
2022-10-13T07:18:39.843Z,95.66
2022-10-13T07:21:06.805Z,95.84
2022-10-13T07:23:34.112Z,95.85
2022-10-13T07:26:01.741Z,95.91
2022-10-13T07:28:28.757Z,96.39
2022-10-13T07:30:55.525Z,96.31
2022-10-13T07:33:22.097Z,96.57
2022-10-13T07:35:48.617Z,96.69
2022-10-13T07:38:15.118Z,96.76
2022-10-13T07:40:41.622Z,97.04
2022-10-13T07:43:08.263Z,97.08
2022-10-13T07:45:34.820Z,97.42
2022-10-13T07:48:01.323Z,97.35
2022-10-13T07:50:27.830Z,97.48
2022-10-13T07:52:54.355Z,97.80
2022-10-13T07:55:20.791Z,97.67
2022-10-13T07:57:47.273Z,97.86
2022-10-13T08:00:13.948Z,97.76
2022-10-13T08:02:40.459Z,97.86
2022-10-13T08:05:07.170Z,97.94
2022-10-13T08:07:33.656Z,97.93
2022-10-13T08:10:00.203Z,97.98
2022-10-13T08:12:26.662Z,97.95
2022-10-13T08:14:53.137Z,97.79
2022-10-13T08:17:19.767Z,97.82
2022-10-13T08:19:46.397Z,98.13
2022-10-13T08:22:13.171Z,97.97
2022-10-13T08:24:39.602Z,97.86
2022-10-13T08:27:06.003Z,97.89
2022-10-13T08:29:32.470Z,97.78
2022-10-13T08:31:58.950Z,97.82
2022-10-13T08:34:25.748Z,97.49
2022-10-13T08:36:56.076Z,97.39
2022-10-13T08:39:23.731Z,97.27
2022-10-13T08:41:51.108Z,97.27
2022-10-13T08:45:15.799Z,97.25
2022-10-13T08:47:28.137Z,96.78
2022-10-13T08:50:02.406Z,96.85
2022-10-13T08:52:47.940Z,96.22
2022-10-13T08:55:45.245Z,95.97
2022-10-13T08:58:24.703Z,95.73
2022-10-13T09:01:23.772Z,95.51
2022-10-13T09:03:50.250Z,94.97
2022-10-13T09:06:28.769Z,94.92
2022-10-13T09:09:00.676Z,94.53
2022-10-13T09:11:33.891Z,94.18
2022-10-13T09:14:04.140Z,94.40
2022-10-13T09:16:42.306Z,94.07
2022-10-13T09:19:30.192Z,93.93
2022-10-13T09:21:58.771Z,94.08
2022-10-13T09:24:27.247Z,93.63
2022-10-13T09:27:17.764Z,93.45
2022-10-13T09:29:44.732Z,93.82
2022-10-13T09:32:17.006Z,93.65
2022-10-13T09:34:43.933Z,93.69
2022-10-13T09:37:24.929Z,93.46
2022-10-13T09:40:19.750Z,93.29
2022-10-13T09:42:53.533Z,93.12
2022-10-13T09:45:23.130Z,93.08
2022-10-13T09:47:53.185Z,92.73
2022-10-13T09:50:27.767Z,92.79
2022-10-13T09:53:12.094Z,91.74
2022-10-13T09:55:38.554Z,91.21
2022-10-13T09:58:12.322Z,91.73
2022-10-13T10:00:40.031Z,91.81
2022-10-13T10:03:15.975Z,91.46
2022-10-13T10:05:57.045Z,90.72
2022-10-13T10:09:04.553Z,91.38
2022-10-13T10:11:42.377Z,91.33
2022-10-13T10:14:26.285Z,90.86
2022-10-13T10:17:13.778Z,90.69
2022-10-13T10:20:01.350Z,89.77
2022-10-13T10:22:42.974Z,89.38
2022-10-13T10:25:29.899Z,89.40
2022-10-13T10:28:13.597Z,89.24
2022-10-13T10:31:26.789Z,89.87
2022-10-13T10:34:19.579Z,89.08
2022-10-13T10:36:56.269Z,89.74
2022-10-13T10:39:34.546Z,89.41
2022-10-13T10:42:21.242Z,88.72
2022-10-13T10:44:51.001Z,88.92
2022-10-13T10:47:51.523Z,88.31
2022-10-13T10:50:19.125Z,88.99
2022-10-13T10:52:59.406Z,89.14
2022-10-13T10:55:25.762Z,90.03
2022-10-13T10:58:24.274Z,89.83
2022-10-13T11:01:14.363Z,89.64
2022-10-13T11:04:22.032Z,89.87
2022-10-13T11:06:48.490Z,90.21
2022-10-13T11:09:15.009Z,89.71
2022-10-13T11:11:42.830Z,90.69
2022-10-13T11:14:09.209Z,89.78
2022-10-13T11:16:38.783Z,90.02
2022-10-13T11:19:08.419Z,90.17
2022-10-13T11:21:53.140Z,90.12
2022-10-13T11:24:34.940Z,89.55
2022-10-13T11:27:07.482Z,89.18
2022-10-13T11:29:49.180Z,89.40
2022-10-13T11:32:28.082Z,89.58
2022-10-13T11:35:19.692Z,89.57
2022-10-13T11:38:07.213Z,90.00
2022-10-13T11:40:45.039Z,89.20
2022-10-13T11:43:43.274Z,88.54
2022-10-13T11:46:24.757Z,88.95
2022-10-13T11:49:31.055Z,88.60
2022-10-13T11:52:42.600Z,89.11
2022-10-13T11:55:16.854Z,89.63
2022-10-13T11:57:43.394Z,90.18
2022-10-13T12:00:18.734Z,90.65
2022-10-13T12:02:50.752Z,90.72
2022-10-13T12:05:26.025Z,90.23
2022-10-13T12:07:55.624Z,90.77
2022-10-13T12:10:32.438Z,90.90
2022-10-13T12:12:59.534Z,91.04
2022-10-13T12:15:32.034Z,91.15
2022-10-13T12:17:58.694Z,91.24
2022-10-13T12:20:31.195Z,90.84
2022-10-13T12:22:57.727Z,90.75
2022-10-13T12:25:28.234Z,91.11
2022-10-13T12:27:57.790Z,91.32
2022-10-13T12:30:27.962Z,90.63
2022-10-13T12:32:57.300Z,90.81
2022-10-13T12:35:37.216Z,91.19
2022-10-13T12:38:12.256Z,90.68
2022-10-13T12:40:39.146Z,90.24
2022-10-13T12:43:06.255Z,90.75
2022-10-13T12:45:35.261Z,90.17
2022-10-13T12:48:01.773Z,90.30
2022-10-13T12:50:28.209Z,90.25
2022-10-13T12:53:08.541Z,90.77
2022-10-13T12:55:45.226Z,90.59
2022-10-13T12:58:20.537Z,90.77
2022-10-13T13:00:55.746Z,91.22
2022-10-13T13:03:27.967Z,91.41
2022-10-13T13:06:12.905Z,91.51
2022-10-13T13:08:41.834Z,91.83
2022-10-13T13:11:21.939Z,92.04
2022-10-13T13:13:48.674Z,92.34
2022-10-13T13:16:15.162Z,92.09
2022-10-13T13:18:43.662Z,92.07
2022-10-13T13:21:13.864Z,92.34
2022-10-13T13:23:40.749Z,92.09
2022-10-13T13:26:18.754Z,92.18
2022-10-13T13:28:53.896Z,91.79
2022-10-13T13:31:23.044Z,91.78
2022-10-13T13:33:50.270Z,91.99
2022-10-13T13:36:25.382Z,92.32
2022-10-13T13:38:53.136Z,92.03
2022-10-13T13:41:20.118Z,91.80
2022-10-13T13:43:46.907Z,91.90
2022-10-13T13:46:19.536Z,91.93
2022-10-13T13:48:46.077Z,91.90
2022-10-13T13:51:12.588Z,91.02
2022-10-13T13:53:39.130Z,90.14
2022-10-13T13:56:05.723Z,90.85
2022-10-13T13:58:32.195Z,91.63
2022-10-13T14:00:59.798Z,91.51
2022-10-13T14:03:26.288Z,90.24
2022-10-13T14:05:52.822Z,91.32
2022-10-13T14:08:19.565Z,91.29
2022-10-13T14:10:46.029Z,91.29
2022-10-13T14:13:12.461Z,91.16
2022-10-13T14:15:38.880Z,90.89
2022-10-13T14:18:05.377Z,90.66
2022-10-13T14:20:31.866Z,90.30
2022-10-13T14:22:58.290Z,90.91
2022-10-13T14:25:25.081Z,90.59
2022-10-13T14:27:51.613Z,91.03
2022-10-13T14:30:18.226Z,90.62
2022-10-13T14:32:44.674Z,90.63
2022-10-13T14:35:11.284Z,91.19
2022-10-13T14:37:37.976Z,91.52
2022-10-13T14:40:05.050Z,91.35
2022-10-13T14:42:31.531Z,90.89
2022-10-13T14:44:57.984Z,90.27
2022-10-13T14:47:24.679Z,90.52
2022-10-13T14:49:51.114Z,90.71
2022-10-13T14:52:17.615Z,91.04
2022-10-13T14:54:45.144Z,91.25
2022-10-13T14:57:15.693Z,91.24
2022-10-13T14:59:42.982Z,91.39
2022-10-13T15:02:11.532Z,91.52
2022-10-13T15:04:37.962Z,91.35
2022-10-13T15:07:04.859Z,91.60
2022-10-13T15:09:45.008Z,91.77
2022-10-13T15:12:18.327Z,91.85
2022-10-13T15:14:45.051Z,91.40
2022-10-13T15:17:11.491Z,91.72
2022-10-13T15:19:37.915Z,91.49
2022-10-13T15:22:04.408Z,91.53
2022-10-13T15:24:30.830Z,91.50
2022-10-13T15:26:57.261Z,91.75
2022-10-13T15:29:23.850Z,91.67
2022-10-13T15:31:50.259Z,91.73
2022-10-13T15:34:16.658Z,91.88
2022-10-13T15:36:43.101Z,91.97
2022-10-13T15:39:10.853Z,91.61
2022-10-13T15:41:37.291Z,91.66
2022-10-13T15:44:03.949Z,91.82
2022-10-13T15:46:31.542Z,91.73
2022-10-13T15:48:59.861Z,91.83
2022-10-13T15:51:27.077Z,91.94
2022-10-13T15:53:55.150Z,91.80
2022-10-13T15:56:21.979Z,91.75
2022-10-13T15:58:48.445Z,91.75
2022-10-13T16:01:15.150Z,91.78
2022-10-13T16:03:41.976Z,92.21
2022-10-13T16:06:11.266Z,91.98
2022-10-13T16:08:39.678Z,92.25
2022-10-13T16:11:14.782Z,92.45
2022-10-13T16:13:44.948Z,92.10
2022-10-13T16:16:11.610Z,92.07
2022-10-13T16:18:39.051Z,92.08
2022-10-13T16:21:18.771Z,92.08
2022-10-13T16:23:46.394Z,92.14
2022-10-13T16:26:12.931Z,92.10
2022-10-13T16:28:39.508Z,92.29
2022-10-13T16:31:10.234Z,92.15
2022-10-13T16:33:37.325Z,92.30
2022-10-13T16:36:05.691Z,92.46
2022-10-13T16:38:32.478Z,92.37
2022-10-13T16:40:58.909Z,92.49
2022-10-13T16:43:25.415Z,92.64
2022-10-13T16:46:00.101Z,92.53
2022-10-13T16:48:27.630Z,92.39
2022-10-13T16:50:54.111Z,92.43
2022-10-13T16:53:20.719Z,92.40
2022-10-13T16:55:47.235Z,92.46
2022-10-13T16:58:13.747Z,92.47
2022-10-13T17:00:40.469Z,92.46
2022-10-13T17:03:07.342Z,92.65
2022-10-13T17:05:34.242Z,92.85
2022-10-13T17:08:00.685Z,93.31
2022-10-13T17:10:27.282Z,93.03
2022-10-13T17:12:54.519Z,93.01
2022-10-13T17:15:21.064Z,93.07
2022-10-13T17:17:47.520Z,93.28
2022-10-13T17:20:14.028Z,93.07
2022-10-13T17:22:40.733Z,93.20
2022-10-13T17:25:07.809Z,93.40
2022-10-13T17:27:36.177Z,93.43
2022-10-13T17:30:04.276Z,93.29
2022-10-13T17:32:30.738Z,93.08
2022-10-13T17:34:57.217Z,93.18
2022-10-13T17:37:24.106Z,93.31
2022-10-13T17:39:50.636Z,93.48
2022-10-13T17:42:17.058Z,93.46
2022-10-13T17:44:43.521Z,93.59
2022-10-13T17:47:09.978Z,93.59
2022-10-13T17:49:37.068Z,93.52
2022-10-13T17:52:03.605Z,93.26
2022-10-13T17:54:30.114Z,93.54
2022-10-13T17:56:59.376Z,93.63
2022-10-13T17:59:25.864Z,93.73
2022-10-13T18:01:52.354Z,93.56
2022-10-13T18:04:19.491Z,93.77
2022-10-13T18:06:46.230Z,93.86
2022-10-13T18:09:18.635Z,93.56
2022-10-13T18:11:50.160Z,93.61
2022-10-13T18:14:23.383Z,94.06
2022-10-13T18:16:51.151Z,94.33
2022-10-13T18:19:18.054Z,94.57
2022-10-13T18:21:44.549Z,94.88
2022-10-13T18:24:11.728Z,95.07
2022-10-13T18:26:38.600Z,95.12
2022-10-13T18:29:07.334Z,94.90
2022-10-13T18:31:36.157Z,94.77
2022-10-13T18:34:06.421Z,95.01
2022-10-13T18:36:38.532Z,94.49
2022-10-13T18:39:26.395Z,94.65
2022-10-13T18:41:54.961Z,94.57
2022-10-13T18:44:23.164Z,94.82
2022-10-13T18:46:51.121Z,94.46
2022-10-13T18:49:19.173Z,94.49
2022-10-13T18:51:46.822Z,94.56
2022-10-13T18:54:13.551Z,94.62
2022-10-13T18:56:40.094Z,94.60
2022-10-13T18:59:08.352Z,94.86
2022-10-13T19:01:36.696Z,94.92
2022-10-13T19:04:04.465Z,94.86
2022-10-13T19:06:32.411Z,94.98
2022-10-13T19:09:04.832Z,95.21
2022-10-13T19:11:32.415Z,95.17
2022-10-13T19:14:00.603Z,95.17
2022-10-13T19:16:29.318Z,95.16
2022-10-13T19:18:56.301Z,94.92
2022-10-13T19:21:24.443Z,95.21
2022-10-13T19:23:51.607Z,95.33
2022-10-13T19:26:21.627Z,95.35
2022-10-13T19:28:48.203Z,95.41
2022-10-13T19:31:21.257Z,95.25
2022-10-13T19:33:49.852Z,95.24
2022-10-13T19:36:38.832Z,95.64
2022-10-13T19:39:11.557Z,95.77
2022-10-13T19:41:38.310Z,95.70
2022-10-13T19:44:04.972Z,95.51
2022-10-13T19:46:32.724Z,95.53
2022-10-13T19:48:59.229Z,95.50
2022-10-13T19:51:25.683Z,95.46
2022-10-13T19:53:52.127Z,95.28
2022-10-13T19:56:21.289Z,95.17
2022-10-13T19:58:47.879Z,95.30
2022-10-13T20:01:14.435Z,95.04
2022-10-13T20:03:40.896Z,94.99
2022-10-13T20:06:07.430Z,94.90
2022-10-13T20:08:33.954Z,94.83
2022-10-13T20:11:06.133Z,94.98
2022-10-13T20:13:32.552Z,95.27
2022-10-13T20:15:58.969Z,94.93
2022-10-13T20:18:25.389Z,95.09
2022-10-13T20:20:51.882Z,94.95
2022-10-13T20:23:18.290Z,95.05
2022-10-13T20:25:44.994Z,94.71
2022-10-13T20:28:11.431Z,94.60
2022-10-13T20:30:39.666Z,94.45
2022-10-13T20:33:06.189Z,94.78
2022-10-13T20:35:32.696Z,94.77
2022-10-13T20:37:59.153Z,94.57
2022-10-13T20:40:25.693Z,94.37
2022-10-13T20:42:52.754Z,94.16
2022-10-13T20:45:19.434Z,94.11
2022-10-13T20:47:46.908Z,94.11
2022-10-13T20:50:13.952Z,93.94
2022-10-13T20:52:40.361Z,93.79
2022-10-13T20:55:07.095Z,93.43
2022-10-13T20:57:33.583Z,93.76
2022-10-13T21:00:00.044Z,93.59
2022-10-13T21:02:26.514Z,93.58
2022-10-13T21:04:53.000Z,93.75
2022-10-13T21:07:19.806Z,93.40
2022-10-13T21:09:50.203Z,93.05
2022-10-13T21:12:19.289Z,92.76
2022-10-13T21:14:45.747Z,93.09
2022-10-13T21:17:12.216Z,93.26
2022-10-13T21:19:39.835Z,93.42
2022-10-13T21:22:06.264Z,93.34
2022-10-13T21:24:32.777Z,93.28
2022-10-13T21:26:59.202Z,93.13
2022-10-13T21:29:25.683Z,93.04
2022-10-13T21:31:52.557Z,93.19
2022-10-13T21:34:19.062Z,93.30
2022-10-13T21:36:45.714Z,93.39
2022-10-13T21:39:12.251Z,93.54
2022-10-13T21:41:38.939Z,94.01
2022-10-13T21:44:05.353Z,93.99
2022-10-13T21:46:34.093Z,93.81
2022-10-13T21:49:04.623Z,93.58
2022-10-13T21:51:34.399Z,93.70
2022-10-13T21:54:03.641Z,93.49
2022-10-13T21:56:30.814Z,93.72
2022-10-13T21:58:57.330Z,93.74
2022-10-13T22:01:24.469Z,93.90
2022-10-13T22:03:56.724Z,93.77
2022-10-13T22:06:24.225Z,93.57
2022-10-13T22:08:52.596Z,93.81
2022-10-13T22:11:20.193Z,93.59
2022-10-13T22:13:46.781Z,93.99
2022-10-13T22:16:16.759Z,93.98
2022-10-13T22:18:43.838Z,93.71
2022-10-13T22:21:20.207Z,93.71
2022-10-13T22:23:47.717Z,93.81
2022-10-13T22:26:15.730Z,94.02
2022-10-13T22:28:42.745Z,94.12
2022-10-13T22:31:11.652Z,94.18
2022-10-13T22:33:41.534Z,93.94
2022-10-13T22:36:16.047Z,93.87
2022-10-13T22:38:43.779Z,94.02
2022-10-13T22:41:11.010Z,93.65
2022-10-13T22:43:37.589Z,93.80
2022-10-13T22:46:04.365Z,93.75
2022-10-13T22:48:31.042Z,94.19
2022-10-13T22:50:57.692Z,93.69
2022-10-13T22:53:24.169Z,93.92
2022-10-13T22:55:50.615Z,93.76
2022-10-13T22:58:17.094Z,93.53
2022-10-13T23:00:43.508Z,93.23
2022-10-13T23:03:13.278Z,92.93
2022-10-13T23:05:45.978Z,92.67
2022-10-13T23:08:12.538Z,92.71
2022-10-13T23:10:39.026Z,92.61
2022-10-13T23:13:06.226Z,92.34
2022-10-13T23:15:32.917Z,92.84
2022-10-13T23:17:59.349Z,93.30
2022-10-13T23:20:25.819Z,93.32
2022-10-13T23:22:52.300Z,93.38
2022-10-13T23:25:18.769Z,93.42
2022-10-13T23:27:45.200Z,93.40
2022-10-13T23:30:12.378Z,93.31
2022-10-13T23:32:38.875Z,93.05
2022-10-13T23:35:05.703Z,93.19
2022-10-13T23:37:32.414Z,93.58
2022-10-13T23:39:58.899Z,93.67
2022-10-13T23:42:25.329Z,93.58
2022-10-13T23:44:51.769Z,93.37
2022-10-13T23:47:18.418Z,93.33
2022-10-13T23:49:45.540Z,93.11
2022-10-13T23:52:12.012Z,93.16
2022-10-13T23:54:38.445Z,93.49
2022-10-13T23:57:04.903Z,93.52
2022-10-13T23:59:31.354Z,92.83
